메인 페이지
METAR-TAF:

METAR-TAF

공항 :

Dallas Executive Airport

댈러스, 텍사스, 미국

위도: 32-40-33N, 경도: 096-51-50W, 고도: 201m

현재 날씨관측

예보는 13분 전, 09:36시(UTC)에 발표되었습니다.
15kt, 순간 최대 풍속 23kt
온도 7°C
습도 93%
기압 1020 hPa
시정: 11.3km
고도 1000ft 상공 구름 많음
고도 2000ft 상공 흐림

METAR: KRBD 150936Z AUTO 35015G23KT 7SM RA BKN010 OVC020 07/06 A3013 RMK AO2 PK WND 36026/0855 LTG DSNT S AND SW P0007 T00720061

시각: 04:49 (09:49 UTC)


TAF: 누락

4,000개 이상의 공항 관측 자료 및 예보 (METAR 및 TAF 보고).

지도상에서 검색 가능한 기상관측소가 노란 점과 빨간 점으로 표시되어 있습니다.

기상관측소 명을 보려면 표시 위로 마우스를 이동하세요.

날씨 관측과 예보를 보려면 클릭하세요.

지도 변경 : 확대하려면 엑스 표시가 있는 녹색 버튼, 축소하려면 빼기 표시가 있는 녹색 버튼, 다음 페이지의 지도를 보려면 녹색 화살표를 클릭하세요.


METAR-TAF: